Time;durP1;ratioP1;P1;durP2;ratioP2;P2;SDS_P1;SDS_P2;PMS_P1;PMS_P2;Temp;Humidity;BMP_temperature;BMP_pressure;BME280_temperature;BME280_humidity;BME280_pressure;Samples;Min_cycle;Max_cycle;Signal;HPM_P1;HPM_P2
2022/10/18 00:01:28;;;;;;;14.07;8.52;;;;;;;6.45;nan;96592.97;5111801;27;20258;-71
2022/10/18 00:03:54;;;;;;;10.43;8.20;;;;;;;6.28;nan;96580.22;5109308;27;20266;-72
2022/10/18 00:06:23;;;;;;;10.23;8.25;;;;;;;6.17;nan;96581.84;5111771;27;20212;-71
2022/10/18 00:08:49;;;;;;;8.75;7.80;;;;;;;6.16;nan;96584.34;5110872;27;20200;-71
2022/10/18 00:11:16;;;;;;;10.93;7.97;;;;;;;6.20;nan;96571.75;5111696;27;20677;-71
2022/10/18 00:13:43;;;;;;;9.75;7.50;;;;;;;6.25;nan;96580.19;5112392;27;20322;-71
2022/10/18 00:16:14;;;;;;;9.20;8.00;;;;;;;6.09;nan;96573.34;5111023;27;20200;-71
2022/10/18 00:18:41;;;;;;;9.15;7.47;;;;;;;6.38;nan;96566.00;5112726;27;20209;-71
2022/10/18 00:21:11;;;;;;;16.13;7.97;;;;;;;6.46;nan;96561.81;5110866;27;20392;-71
2022/10/18 00:23:39;;;;;;;10.25;7.55;;;;;;;6.33;nan;96562.59;5112066;27;20260;-71
2022/10/18 00:26:08;;;;;;;8.18;7.47;;;;;;;6.37;nan;96561.78;5111855;27;20815;-70
2022/10/18 00:28:35;;;;;;;10.43;7.32;;;;;;;6.60;nan;96552.66;5110980;27;20210;-71
2022/10/18 00:31:14;;;;;;;7.97;6.70;;;;;;;6.51;nan;96552.59;5112152;27;20224;-72
2022/10/18 00:33:41;;;;;;;8.35;6.82;;;;;;;6.59;nan;96548.44;5111912;27;20260;-71
2022/10/18 00:36:09;;;;;;;10.38;6.75;;;;;;;6.77;nan;96546.00;5109664;27;20593;-71
2022/10/18 00:38:36;;;;;;;12.20;7.43;;;;;;;6.90;nan;96539.34;5111103;27;20223;-71
2022/10/18 00:41:06;;;;;;;13.23;7.78;;;;;;;6.69;nan;96541.75;5112185;27;20208;-72
2022/10/18 00:43:32;;;;;;;11.15;8.27;;;;;;;6.57;nan;96541.69;5109177;27;20227;-71
2022/10/18 00:45:59;;;;;;;10.73;8.50;;;;;;;6.40;nan;96541.59;5109205;27;22165;-71
2022/10/18 00:48:26;;;;;;;9.80;8.02;;;;;;;6.36;nan;96543.25;5110796;27;20196;-71
2022/10/18 00:50:53;;;;;;;11.65;8.32;;;;;;;6.56;nan;96534.94;5109689;27;20231;-70
2022/10/18 00:53:23;;;;;;;10.68;7.30;;;;;;;6.64;nan;96531.66;5110117;27;20584;-71
2022/10/18 00:55:50;;;;;;;16.40;9.05;;;;;;;6.44;nan;96528.13;5109727;27;20208;-73
2022/10/18 00:58:19;;;;;;;12.20;9.10;;;;;;;6.25;nan;96533.91;5108119;27;20196;-72
2022/10/18 01:00:47;;;;;;;11.40;8.32;;;;;;;6.35;nan;96535.69;5111162;27;20200;-71
2022/10/18 01:03:13;;;;;;;13.07;9.05;;;;;;;6.14;nan;96532.19;5109500;27;20635;-71
2022/10/18 01:05:44;;;;;;;12.55;9.00;;;;;;;6.05;nan;96532.09;5109197;27;20196;-71
2022/10/18 01:08:31;;;;;;;18.17;10.98;;;;;;;5.91;nan;96527.78;5110020;27;20227;-71
2022/10/18 01:11:09;;;;;;;15.15;8.27;;;;;;;5.93;nan;96521.94;5110757;27;20203;-69
2022/10/18 01:13:50;;;;;;;23.25;10.65;;;;;;;5.86;nan;96520.16;5110410;27;20260;-70
2022/10/18 01:16:31;;;;;;;19.67;11.38;;;;;;;5.73;nan;96523.38;5110149;27;20676;-70
2022/10/18 01:19:02;;;;;;;17.17;10.82;;;;;;;5.74;nan;96520.03;5110956;27;20336;-69
2022/10/18 01:21:40;;;;;;;15.77;10.93;;;;;;;6.29;nan;96517.97;5110144;27;20228;-69
2022/10/18 01:24:39;;;;;;;13.05;8.68;;;;;;;6.18;nan;96514.53;5110954;27;20247;-69
2022/10/18 01:27:34;;;;;;;12.68;9.23;;;;;;;5.65;nan;96514.94;5109575;27;20224;-70
2022/10/18 01:30:23;;;;;;;14.45;11.27;;;;;;;5.45;nan;96512.22;5110642;27;20253;-70
2022/10/18 01:32:53;;;;;;;14.18;10.55;;;;;;;5.74;nan;96522.56;5111029;27;20211;-71
2022/10/18 01:35:29;;;;;;;16.58;10.82;;;;;;;5.83;nan;96510.03;5110235;27;20188;-71
2022/10/18 01:38:00;;;;;;;10.35;8.95;;;;;;;6.30;nan;96512.91;5110335;27;20227;-71
2022/10/18 01:40:29;;;;;;;10.90;9.15;;;;;;;6.53;nan;96510.53;5110209;27;20212;-72
2022/10/18 01:42:56;;;;;;;11.02;8.77;;;;;;;6.46;nan;96511.31;5110851;27;20196;-71
2022/10/18 01:45:25;;;;;;;13.07;9.43;;;;;;;6.59;nan;96505.50;5109560;27;20273;-71
2022/10/18 01:47:54;;;;;;;8.73;7.93;;;;;;;6.09;nan;96513.63;5109544;27;20212;-71
2022/10/18 01:50:29;;;;;;;13.07;9.23;;;;;;;6.00;nan;96508.50;5110233;27;20253;-71
2022/10/18 01:52:56;;;;;;;11.18;9.15;;;;;;;6.04;nan;96505.16;5109310;27;20833;-71
2022/10/18 01:55:27;;;;;;;11.40;8.70;;;;;;;6.46;nan;96503.75;5110170;27;20705;-71
2022/10/18 01:58:03;;;;;;;13.07;8.02;;;;;;;6.70;nan;96508.91;5109799;27;20269;-71
2022/10/18 02:00:38;;;;;;;11.63;7.80;;;;;;;6.77;nan;96505.59;5110606;27;20294;-70
2022/10/18 02:03:09;;;;;;;10.18;7.78;;;;;;;6.39;nan;96509.63;5109123;27;20196;-71
2022/10/18 02:05:41;;;;;;;14.68;9.52;;;;;;;6.07;nan;96497.63;5110193;27;20223;-71
2022/10/18 02:08:18;;;;;;;12.00;8.85;;;;;;;5.96;nan;96496.69;5109196;27;20224;-71
2022/10/18 02:10:48;;;;;;;10.43;8.52;;;;;;;5.96;nan;96493.31;5109023;27;20204;-71
2022/10/18 02:13:18;;;;;;;9.45;7.97;;;;;;;6.19;nan;96484.22;5110270;27;20261;-71
2022/10/18 02:15:49;;;;;;;10.88;8.30;;;;;;;6.45;nan;96491.94;5109609;27;20294;-71
2022/10/18 02:18:19;;;;;;;11.43;7.80;;;;;;;6.48;nan;96494.50;5110066;27;20234;-71
2022/10/18 02:20:48;;;;;;;9.20;7.45;;;;;;;6.53;nan;96495.38;5109253;27;20670;-71
2022/10/18 02:23:18;;;;;;;9.85;8.38;;;;;;;6.21;nan;96501.91;5109228;27;20673;-71
2022/10/18 02:25:45;;;;;;;12.15;8.05;;;;;;;6.25;nan;96488.47;5108846;27;20235;-71
2022/10/18 02:28:12;;;;;;;16.27;8.07;;;;;;;6.33;nan;96496.94;5109811;27;20204;-71
2022/10/18 02:30:45;;;;;;;10.77;6.65;;;;;;;6.42;nan;96492.81;5108540;27;20249;-71
2022/10/18 02:33:18;;;;;;;12.02;7.90;;;;;;;6.54;nan;96493.69;5109170;27;20208;-72
2022/10/18 02:35:49;;;;;;;14.93;7.13;;;;;;;6.59;nan;96495.41;5109773;27;20200;-72
2022/10/18 02:38:20;;;;;;;9.65;8.65;;;;;;;6.17;nan;96490.97;5108690;27;20231;-73
2022/10/18 02:40:47;;;;;;;9.07;8.00;;;;;;;5.78;nan;96494.84;5107757;27;20204;-72
2022/10/18 02:43:14;;;;;;;10.05;7.13;;;;;;;5.85;nan;96493.22;5109834;27;20306;-71
2022/10/18 02:45:41;;;;;;;8.77;7.82;;;;;;;5.77;nan;96490.63;5108703;27;20296;-71
2022/10/18 02:48:08;;;;;;;8.93;7.85;;;;;;;5.63;nan;96493.91;5109201;27;20257;-71
2022/10/18 02:50:36;;;;;;;17.85;8.18;;;;;;;5.65;nan;96505.69;5108192;27;20285;-71
2022/10/18 02:53:03;;;;;;;12.35;7.53;;;;;;;5.73;nan;96499.00;5108738;27;20253;-71
2022/10/18 02:55:29;;;;;;;12.55;7.82;;;;;;;5.83;nan;96499.94;5109466;27;20231;-71
2022/10/18 02:57:56;;;;;;;14.38;8.43;;;;;;;5.87;nan;96500.81;5109459;27;20277;-71
2022/10/18 03:00:23;;;;;;;9.02;7.88;;;;;;;5.84;nan;96499.09;5108750;27;20884;-72
2022/10/18 03:02:51;;;;;;;12.65;7.80;;;;;;;6.00;nan;96502.63;5109575;27;20204;-72
2022/10/18 03:05:18;;;;;;;9.63;8.32;;;;;;;6.03;nan;96500.13;5108433;27;20299;-70
2022/10/18 03:07:46;;;;;;;9.68;8.30;;;;;;;6.07;nan;96499.31;5109240;27;20281;-70
2022/10/18 03:10:13;;;;;;;8.88;6.97;;;;;;;6.18;nan;96497.72;5106990;27;20200;-71
2022/10/18 03:12:40;;;;;;;10.18;7.50;;;;;;;6.17;nan;96495.16;5106812;27;20192;-71
2022/10/18 03:15:07;;;;;;;11.85;8.52;;;;;;;6.07;nan;96487.53;5107825;27;20192;-71
2022/10/18 03:17:34;;;;;;;12.38;7.50;;;;;;;5.85;nan;96492.38;5107088;27;20677;-71
2022/10/18 03:20:00;;;;;;;12.20;7.85;;;;;;;5.65;nan;96493.09;5106806;27;20197;-72
2022/10/18 03:22:27;;;;;;;14.45;8.73;;;;;;;5.37;nan;96494.50;5107187;27;20842;-71
2022/10/18 03:24:56;;;;;;;11.50;7.90;;;;;;;5.30;nan;96496.94;5109390;27;20832;-71
2022/10/18 03:27:22;;;;;;;13.70;8.00;;;;;;;5.34;nan;96491.97;5108127;27;20308;-72
2022/10/18 03:29:49;;;;;;;10.98;8.15;;;;;;;5.75;nan;96497.34;5108523;27;20200;-72
2022/10/18 03:32:16;;;;;;;10.20;7.88;;;;;;;5.95;nan;96494.16;5107009;27;20301;-72
2022/10/18 03:34:42;;;;;;;12.52;8.25;;;;;;;5.94;nan;96492.50;5107632;27;21726;-70
2022/10/18 03:37:09;;;;;;;10.93;8.85;;;;;;;5.42;nan;96490.34;5109186;27;20199;-70
2022/10/18 03:39:36;;;;;;;12.00;9.45;;;;;;;5.42;nan;96492.03;5108085;27;20235;-71
2022/10/18 03:42:04;;;;;;;11.77;9.35;;;;;;;5.35;nan;96491.13;5108486;27;20215;-70
2022/10/18 03:44:31;;;;;;;13.07;8.52;;;;;;;5.35;nan;96491.13;5109348;27;21163;-71
2022/10/18 03:46:57;;;;;;;14.98;8.80;;;;;;;5.45;nan;96497.91;5109170;27;20268;-70
2022/10/18 03:49:24;;;;;;;14.85;10.40;;;;;;;5.22;nan;96501.91;5109902;27;21801;-69
2022/10/18 03:51:51;;;;;;;13.13;9.15;;;;;;;4.95;nan;96504.16;5108590;27;20218;-70
2022/10/18 03:54:17;;;;;;;12.13;9.60;;;;;;;4.97;nan;96508.34;5109491;27;20204;-70
2022/10/18 03:56:44;;;;;;;13.35;9.60;;;;;;;5.07;nan;96514.34;5108590;27;20250;-70
2022/10/18 03:59:12;;;;;;;14.20;9.95;;;;;;;5.06;nan;96513.50;5108816;27;20259;-71
2022/10/18 04:01:39;;;;;;;14.00;11.02;;;;;;;5.37;nan;96513.84;5108722;27;20918;-71
2022/10/18 04:04:05;;;;;;;17.77;11.85;;;;;;;5.68;nan;96508.25;5108371;27;20200;-70
2022/10/18 04:06:32;;;;;;;15.95;11.65;;;;;;;5.63;nan;96506.50;5108577;27;20228;-71
2022/10/18 04:08:59;;;;;;;35.63;17.50;;;;;;;5.69;nan;96501.53;5108817;27;20754;-71
2022/10/18 04:11:26;;;;;;;37.78;18.35;;;;;;;5.73;nan;96498.16;5108650;27;20293;-71
2022/10/18 04:13:52;;;;;;;24.83;15.40;;;;;;;5.88;nan;96498.31;5089436;27;20242;-71
2022/10/18 04:16:21;;;;;;;15.45;10.95;;;;;;;5.69;nan;96506.56;5109206;27;20197;-71
2022/10/18 04:18:47;;;;;;;21.67;12.52;;;;;;;5.45;nan;96502.97;5108412;27;20205;-71
2022/10/18 04:21:14;;;;;;;15.55;10.77;;;;;;;5.56;nan;96504.75;5108702;27;20204;-71
2022/10/18 04:23:41;;;;;;;17.48;9.80;;;;;;;5.76;nan;96503.25;5112424;27;20205;-71
2022/10/18 04:26:08;;;;;;;13.68;9.48;;;;;;;5.86;nan;96499.13;5112934;27;20356;-71
2022/10/18 04:28:38;;;;;;;17.48;9.85;;;;;;;5.74;nan;96507.44;5111756;27;20215;-71
2022/10/18 04:31:06;;;;;;;50.03;28.20;;;;;;;5.37;nan;96508.78;5112519;27;20327;-71
2022/10/18 04:33:34;;;;;;;50.80;27.67;;;;;;;5.48;nan;96503.00;5111003;27;21748;-71
2022/10/18 04:36:00;;;;;;;37.15;21.80;;;;;;;5.47;nan;96495.41;5112385;27;20196;-71
2022/10/18 04:38:27;;;;;;;18.00;13.50;;;;;;;5.41;nan;96498.75;5112665;27;20196;-71
2022/10/18 04:40:54;;;;;;;20.83;12.02;;;;;;;5.54;nan;96491.28;5111921;27;20669;-71
2022/10/18 04:43:21;;;;;;;24.48;15.00;;;;;;;5.57;nan;96498.88;5110944;27;20579;-72
2022/10/18 04:45:49;;;;;;;38.38;16.83;;;;;;;5.73;nan;96488.06;5111223;27;20255;-72
2022/10/18 04:48:16;;;;;;;49.38;23.60;;;;;;;5.94;nan;96495.84;5111874;27;20209;-72
2022/10/18 04:50:48;;;;;;;39.97;21.65;;;;;;;5.60;nan;96491.34;5111834;27;20197;-71
2022/10/18 04:53:15;;;;;;;48.28;20.08;;;;;;;5.25;nan;96491.00;5111729;27;20292;-71
2022/10/18 04:55:43;;;;;;;43.38;18.33;;;;;;;5.01;nan;96494.13;5111990;27;20232;-70
2022/10/18 04:58:10;;;;;;;34.97;14.63;;;;;;;4.98;nan;96489.03;5110890;27;20640;-71
2022/10/18 05:00:38;;;;;;;28.45;14.27;;;;;;;4.87;nan;96485.59;5111268;27;20681;-72
2022/10/18 05:03:04;;;;;;;26.65;12.75;;;;;;;4.87;nan;96488.09;5111626;27;20255;-72
2022/10/18 05:05:31;;;;;;;17.13;11.93;;;;;;;4.75;nan;96484.59;5110897;27;22144;-72
2022/10/18 05:07:59;;;;;;;20.00;12.63;;;;;;;4.71;nan;96487.91;5110981;27;20224;-72
2022/10/18 05:10:26;;;;;;;28.00;12.32;;;;;;;5.20;nan;96485.09;5110471;27;20208;-72
2022/10/18 05:12:53;;;;;;;23.30;13.68;;;;;;;5.65;nan;96479.63;5112130;27;20207;-72
2022/10/18 05:15:19;;;;;;;34.28;16.58;;;;;;;6.00;nan;96480.75;5109519;27;20216;-75
2022/10/18 05:17:46;;;;;;;40.38;18.77;;;;;;;6.24;nan;96491.84;5111330;27;21531;-72
2022/10/18 05:20:13;;;;;;;35.05;17.90;;;;;;;6.55;nan;96486.13;5109813;27;20685;-71
2022/10/18 05:22:40;;;;;;;35.97;16.90;;;;;;;6.63;nan;96487.00;5111077;27;20733;-72
2022/10/18 05:25:09;;;;;;;23.00;15.02;;;;;;;6.64;nan;96483.66;5111242;27;20328;-72
2022/10/18 05:27:35;;;;;;;26.48;14.50;;;;;;;6.80;nan;96479.50;5110095;27;20230;-72
2022/10/18 05:30:03;;;;;;;19.13;12.00;;;;;;;7.00;nan;96484.59;5110370;27;20284;-69
2022/10/18 05:32:29;;;;;;;19.95;12.95;;;;;;;7.20;nan;96488.03;5109300;27;20300;-70
2022/10/18 05:34:56;;;;;;;20.45;13.02;;;;;;;7.55;nan;96485.56;5110615;27;20204;-72
2022/10/18 05:37:23;;;;;;;24.75;12.48;;;;;;;8.07;nan;96488.94;5110423;27;20200;-69
2022/10/18 05:39:49;;;;;;;23.33;12.80;;;;;;;7.54;nan;96488.09;5110313;27;20210;-72
2022/10/18 05:42:18;;;;;;;24.73;12.80;;;;;;;6.89;nan;96488.78;5111315;27;20277;-70
2022/10/18 05:44:44;;;;;;;21.73;13.43;;;;;;;6.67;nan;96487.88;5109793;27;20239;-71
2022/10/18 05:47:11;;;;;;;32.30;16.77;;;;;;;6.75;nan;96487.03;5110641;27;20200;-72
2022/10/18 05:49:38;;;;;;;26.10;14.43;;;;;;;7.10;nan;96488.84;5110186;27;20208;-72
2022/10/18 05:52:05;;;;;;;26.98;13.15;;;;;;;6.91;nan;96494.69;5109964;27;20643;-70
2022/10/18 05:54:31;;;;;;;16.80;11.68;;;;;;;7.14;nan;96490.56;5110641;27;20297;-70
2022/10/18 05:56:58;;;;;;;19.73;9.50;;;;;;;7.65;nan;96494.00;5111257;27;20681;-70
2022/10/18 05:59:26;;;;;;;20.55;10.02;;;;;;;7.92;nan;96483.03;5110578;27;20204;-70
2022/10/18 06:01:53;;;;;;;20.20;10.98;;;;;;;8.64;nan;96487.16;5110009;27;20265;-71
2022/10/18 06:04:20;;;;;;;27.73;10.60;;;;;;;11.29;nan;96484.06;5110767;27;20204;-70
2022/10/18 06:06:46;;;;;;;12.75;9.68;;;;;;;14.19;nan;96481.00;5110503;27;20306;-71
2022/10/18 06:09:13;;;;;;;20.58;12.50;;;;;;;14.17;nan;96472.53;5110802;27;20196;-70
2022/10/18 06:11:40;;;;;;;20.75;11.60;;;;;;;13.90;nan;96478.31;5109997;27;20632;-69
2022/10/18 06:14:08;;;;;;;24.75;12.68;;;;;;;13.14;nan;96482.56;5109321;27;20312;-70
2022/10/18 06:16:36;;;;;;;22.48;14.45;;;;;;;12.48;nan;96483.88;5109580;27;20208;-71
2022/10/18 06:19:03;;;;;;;22.55;14.10;;;;;;;11.75;nan;96481.69;5110290;27;20208;-71
2022/10/18 06:21:30;;;;;;;21.45;13.82;;;;;;;11.72;nan;96479.19;5109453;27;20268;-70
2022/10/18 06:23:58;;;;;;;20.33;12.75;;;;;;;12.34;nan;96474.81;5109709;27;20688;-70
2022/10/18 06:26:26;;;;;;;21.08;12.90;;;;;;;12.01;nan;96482.16;5109266;27;20243;-71
2022/10/18 06:28:53;;;;;;;28.20;13.55;;;;;;;11.11;nan;96480.06;5110321;27;20744;-71
2022/10/18 06:31:20;;;;;;;19.42;13.20;;;;;;;10.30;nan;96473.38;5109993;27;20224;-71
2022/10/18 06:33:49;;;;;;;20.70;14.75;;;;;;;10.27;nan;96480.19;5109026;27;20215;-72
2022/10/18 06:36:18;;;;;;;34.63;17.50;;;;;;;10.74;nan;96480.53;5108863;27;20218;-72
2022/10/18 06:38:45;;;;;;;47.92;17.02;;;;;;;11.82;nan;96481.63;5110105;27;20273;-71
2022/10/18 06:41:12;;;;;;;49.10;19.33;;;;;;;11.58;nan;96484.50;5109227;27;20299;-71
2022/10/18 06:43:38;;;;;;;85.82;18.20;;;;;;;11.28;nan;96479.84;5109923;27;20269;-72
2022/10/18 06:46:06;;;;;;;41.30;16.13;;;;;;;10.68;nan;96490.75;5108899;27;20789;-70
2022/10/18 06:48:34;;;;;;;41.25;18.50;;;;;;;10.37;nan;96486.88;5109176;27;20208;-70
2022/10/18 06:51:05;;;;;;;54.13;22.25;;;;;;;10.20;nan;96482.78;5109441;27;20192;-71
2022/10/18 06:53:33;;;;;;;30.15;18.38;;;;;;;9.86;nan;96476.28;5109564;27;21111;-71
2022/10/18 06:56:01;;;;;;;33.58;15.55;;;;;;;9.88;nan;96484.75;5109512;27;20549;-71
2022/10/18 06:58:28;;;;;;;28.33;14.90;;;;;;;9.64;nan;96480.69;5109162;27;21970;-71
2022/10/18 07:00:56;;;;;;;30.52;14.60;;;;;;;10.05;nan;96477.81;5109462;27;20207;-71
2022/10/18 07:03:23;;;;;;;29.08;14.57;;;;;;;11.01;nan;96475.97;5109837;27;20224;-70
2022/10/18 07:05:50;;;;;;;31.52;14.88;;;;;;;11.29;nan;96484.91;5108514;27;20224;-71
2022/10/18 07:08:18;;;;;;;32.95;13.98;;;;;;;11.32;nan;96474.69;5108924;27;21519;-71
2022/10/18 07:10:51;;;;;;;24.40;14.18;;;;;;;10.86;nan;96480.38;5108542;27;20276;-71
2022/10/18 07:13:18;;;;;;;22.23;11.93;;;;;;;10.68;nan;96483.13;5109037;27;20235;-71
2022/10/18 07:15:45;;;;;;;26.27;13.73;;;;;;;10.34;nan;96479.28;5109782;27;20200;-71
2022/10/18 07:18:12;;;;;;;22.88;12.98;;;;;;;10.50;nan;96485.88;5108066;27;20650;-71
2022/10/18 07:20:39;;;;;;;33.95;13.02;;;;;;;10.45;nan;96482.53;5109448;27;20208;-72
2022/10/18 07:23:07;;;;;;;19.75;12.48;;;;;;;9.92;nan;96477.91;5109674;27;20701;-71
2022/10/18 07:25:35;;;;;;;22.45;12.60;;;;;;;10.01;nan;96478.69;5108313;27;20231;-71
2022/10/18 07:28:02;;;;;;;19.42;12.57;;;;;;;10.19;nan;96472.63;5107762;27;20201;-71
2022/10/18 07:30:29;;;;;;;23.15;11.90;;;;;;;10.75;nan;96474.56;5109285;27;20234;-71
2022/10/18 07:32:55;;;;;;;25.35;13.02;;;;;;;11.26;nan;96467.13;5109244;27;20204;-71
2022/10/18 07:35:22;;;;;;;20.70;13.23;;;;;;;11.41;nan;96463.53;5108383;27;20257;-71
2022/10/18 07:37:49;;;;;;;44.88;19.50;;;;;;;13.02;nan;96452.22;5107856;27;20211;-69
2022/10/18 07:40:16;;;;;;;26.00;13.57;;;;;;;15.92;nan;96453.91;5106832;27;20303;-71
2022/10/18 07:42:44;;;;;;;23.10;12.57;;;;;;;17.89;nan;96442.47;5107203;27;20223;-71
2022/10/18 07:45:12;;;;;;;22.77;12.35;;;;;;;18.89;nan;96438.22;5109790;27;20236;-72
2022/10/18 07:47:39;;;;;;;23.65;14.15;;;;;;;20.73;nan;96436.28;5108920;27;20215;-71
2022/10/18 07:50:07;;;;;;;32.08;14.95;;;;;;;22.68;nan;96428.81;5109074;27;20257;-72
2022/10/18 07:52:33;;;;;;;31.08;13.30;;;;;;;24.79;nan;96421.34;5109220;27;20200;-72
2022/10/18 07:55:00;;;;;;;21.50;12.82;;;;;;;24.96;nan;96421.06;5109034;27;20208;-72
2022/10/18 07:57:27;;;;;;;28.35;15.80;;;;;;;25.21;nan;96407.19;5112209;27;20227;-71
2022/10/18 07:59:55;;;;;;;25.92;17.05;;;;;;;26.25;nan;96405.66;5112563;27;20230;-72
2022/10/18 08:02:22;;;;;;;23.52;15.15;;;;;;;26.16;nan;96414.19;5111357;27;20209;-72
2022/10/18 08:04:49;;;;;;;24.23;15.68;;;;;;;27.58;nan;96405.91;5111661;27;20256;-72
2022/10/18 08:07:16;;;;;;;25.77;14.32;;;;;;;27.97;nan;96401.81;5113058;27;20697;-73
2022/10/18 08:09:44;;;;;;;22.73;13.30;;;;;;;28.19;nan;96393.91;5112997;27;20258;-73
2022/10/18 08:12:10;;;;;;;23.17;13.60;;;;;;;28.53;nan;96385.88;5113492;27;20273;-72
2022/10/18 08:14:37;;;;;;;24.23;13.23;;;;;;;29.83;nan;96388.53;5111674;27;20212;-73
2022/10/18 08:17:05;;;;;;;16.83;12.32;;;;;;;29.71;nan;96385.19;5112323;27;20219;-72
2022/10/18 08:19:32;;;;;;;22.02;11.75;;;;;;;29.79;nan;96382.72;5111515;27;20249;-72
2022/10/18 08:21:59;;;;;;;21.63;11.63;;;;;;;30.29;nan;96383.41;5112163;27;20285;-72
2022/10/18 08:24:25;;;;;;;15.32;11.60;;;;;;;29.74;nan;96377.91;5112351;27;20208;-73
2022/10/18 08:26:53;;;;;;;22.05;11.45;;;;;;;29.93;nan;96371.84;5111710;27;21708;-72
2022/10/18 08:29:20;;;;;;;17.40;12.02;;;;;;;30.03;nan;96371.84;5111476;27;20196;-73
2022/10/18 08:31:49;;;;;;;16.00;12.10;;;;;;;30.14;nan;96366.47;5111367;27;20682;-72
2022/10/18 08:34:17;;;;;;;13.80;12.02;;;;;;;31.34;nan;96355.16;5111639;27;20234;-72
2022/10/18 08:36:44;;;;;;;15.85;11.60;;;;;;;30.71;nan;96349.78;5111069;27;20217;-72
2022/10/18 08:39:11;;;;;;;21.42;12.38;;;;;;;31.20;nan;96349.56;5112551;27;20204;-72
2022/10/18 08:41:53;;;;;;;20.65;11.75;;;;;;;31.55;nan;96344.38;5111282;27;20196;-72
2022/10/18 08:44:23;;;;;;;16.10;12.45;;;;;;;29.36;nan;96333.31;5112862;27;20231;-73
2022/10/18 08:46:52;;;;;;;15.48;12.40;;;;;;;29.28;nan;96331.34;5111599;27;20525;-72
2022/10/18 08:49:27;;;;;;;22.08;12.85;;;;;;;29.92;nan;96332.66;5111110;27;20227;-72
2022/10/18 08:51:55;;;;;;;12.77;11.48;;;;;;;29.05;nan;96324.69;5111869;27;20280;-72
2022/10/18 08:54:29;;;;;;;15.23;11.32;;;;;;;27.39;nan;96321.19;5112361;27;20898;-71
2022/10/18 08:56:59;;;;;;;20.33;10.52;;;;;;;27.12;nan;96330.38;5116020;27;20283;-72
2022/10/18 08:59:31;;;;;;;19.88;11.90;;;;;;;27.98;nan;96327.69;5115516;27;20188;-71
2022/10/18 09:02:05;;;;;;;16.92;11.88;;;;;;;29.23;nan;96319.63;5112006;27;20639;-72
2022/10/18 09:04:46;;;;;;;22.02;11.15;;;;;;;30.04;nan;96315.84;5115403;27;20192;-74
2022/10/18 09:07:27;;;;;;;22.60;11.30;;;;;;;30.57;nan;96315.31;5114989;27;20311;-72
2022/10/18 09:10:01;;;;;;;13.57;10.70;;;;;;;30.92;nan;96314.63;5114445;27;20189;-72
2022/10/18 09:12:47;;;;;;;16.67;11.40;;;;;;;29.71;nan;96311.81;5111817;27;20706;-73
2022/10/18 09:15:20;;;;;;;15.15;11.60;;;;;;;26.49;nan;96316.16;5113182;27;20226;-73
2022/10/18 09:18:08;;;;;;;18.63;11.45;;;;;;;25.47;nan;96316.84;5113447;27;20231;-75
2022/10/18 09:20:49;;;;;;;17.85;9.48;;;;;;;24.60;nan;96310.00;5112457;27;20692;-71
2022/10/18 09:23:19;;;;;;;23.55;10.00;;;;;;;24.81;nan;96307.66;5111723;27;20257;-72
2022/10/18 09:25:48;;;;;;;23.35;10.20;;;;;;;24.52;nan;96311.47;5113131;27;20536;-72
2022/10/18 09:28:24;;;;;;;19.05;12.27;;;;;;;25.59;nan;96308.13;5113508;27;20268;-72
2022/10/18 09:30:59;;;;;;;19.20;9.85;;;;;;;26.32;nan;96307.88;5110760;27;20728;-71
2022/10/18 09:33:38;;;;;;;14.40;10.45;;;;;;;26.46;nan;96293.78;5112373;27;20203;-73
2022/10/18 09:36:08;;;;;;;13.57;10.38;;;;;;;25.35;nan;96304.72;5111568;27;20276;-73
2022/10/18 09:38:44;;;;;;;17.40;10.10;;;;;;;24.52;nan;96291.50;5111397;27;20201;-71
2022/10/18 09:41:17;;;;;;;14.02;10.43;;;;;;;23.48;nan;96292.44;5110483;27;20677;-71
2022/10/18 09:43:52;;;;;;;16.10;9.65;;;;;;;22.46;nan;96293.72;5111362;27;20555;-71
2022/10/18 09:46:21;;;;;;;16.67;9.38;;;;;;;20.82;nan;96293.66;5110551;27;20288;-71
2022/10/18 09:48:53;;;;;;;14.63;9.93;;;;;;;20.54;nan;96290.94;5112110;27;20290;-72
2022/10/18 09:51:25;;;;;;;11.82;9.70;;;;;;;20.15;nan;96288.66;5111303;27;20575;-72
2022/10/18 09:54:14;;;;;;;22.38;10.32;;;;;;;19.68;nan;96292.72;5111754;27;20204;-71
2022/10/18 09:56:46;;;;;;;21.10;8.55;;;;;;;19.04;nan;96289.84;5111797;27;20200;-70
2022/10/18 09:59:30;;;;;;;9.63;7.95;;;;;;;18.82;nan;96287.41;5110301;27;20281;-74
2022/10/18 10:01:56;;;;;;;12.30;8.38;;;;;;;18.96;nan;96282.47;5110919;27;20210;-72
2022/10/18 10:04:23;;;;;;;14.48;7.85;;;;;;;19.07;nan;96270.81;5110879;27;20257;-71
2022/10/18 10:06:53;;;;;;;9.73;6.72;;;;;;;19.08;nan;96275.06;5111858;27;20280;-71
2022/10/18 10:09:26;;;;;;;12.15;6.90;;;;;;;18.84;nan;96261.59;5113382;27;20208;-73
2022/10/18 10:11:54;;;;;;;12.73;7.53;;;;;;;18.65;nan;96266.78;5113525;27;20268;-72
2022/10/18 10:14:24;;;;;;;9.52;6.82;;;;;;;19.05;nan;96249.47;5114042;27;20236;-72
2022/10/18 10:16:55;;;;;;;10.57;6.63;;;;;;;19.05;nan;96237.41;5113612;27;20203;-72
2022/10/18 10:19:28;;;;;;;11.13;6.13;;;;;;;18.93;nan;96236.25;5114711;27;20208;-72
2022/10/18 10:22:05;;;;;;;9.23;6.03;;;;;;;19.03;nan;96232.34;5113528;27;20265;-74
2022/10/18 10:24:47;;;;;;;14.25;6.45;;;;;;;19.20;nan;96225.50;5111936;27;20204;-73
2022/10/18 10:27:21;;;;;;;11.55;6.35;;;;;;;19.30;nan;96221.59;5113257;27;20277;-73
2022/10/18 10:29:55;;;;;;;5.50;5.00;;;;;;;19.23;nan;96218.47;5112934;27;20203;-72
2022/10/18 10:32:26;;;;;;;8.20;4.88;;;;;;;19.03;nan;96214.31;5110484;27;20198;-73
2022/10/18 10:34:55;;;;;;;5.65;5.00;;;;;;;19.29;nan;96201.88;5110565;27;20223;-74
2022/10/18 10:37:26;;;;;;;6.85;6.18;;;;;;;19.28;nan;96198.47;5109779;27;20196;-72
2022/10/18 10:40:24;;;;;;;12.40;5.13;;;;;;;19.01;nan;96198.06;5110780;27;20204;-72
2022/10/18 10:43:15;;;;;;;8.55;4.63;;;;;;;19.28;nan;96187.31;5074671;27;20196;-72
2022/10/18 10:45:56;;;;;;;7.03;4.57;;;;;;;19.58;nan;96172.88;5110422;27;20243;-73
2022/10/18 10:48:25;;;;;;;6.72;4.40;;;;;;;19.75;nan;96164.31;5111673;27;20308;-72
2022/10/18 10:51:01;;;;;;;5.85;5.28;;;;;;;19.90;nan;96153.16;5090467;27;20677;-71
2022/10/18 10:53:35;;;;;;;9.65;5.32;;;;;;;20.06;nan;96153.16;5110754;27;20233;-72
2022/10/18 10:56:03;;;;;;;9.43;4.38;;;;;;;19.96;nan;96152.84;5110090;27;20223;-71
2022/10/18 10:58:36;;;;;;;11.65;4.22;;;;;;;20.01;nan;96155.19;5109540;27;20301;-72
2022/10/18 11:01:19;;;;;;;6.63;4.03;;;;;;;20.12;nan;96146.84;5109280;27;20196;-71
2022/10/18 11:03:47;;;;;;;5.93;3.40;;;;;;;20.04;nan;96144.69;5109408;27;20971;-71
2022/10/18 11:06:31;;;;;;;4.97;3.05;;;;;;;19.59;nan;96141.03;5110628;27;20239;-72
2022/10/18 11:09:03;;;;;;;3.05;2.75;;;;;;;19.55;nan;96142.09;5111333;27;20232;-71
2022/10/18 11:11:34;;;;;;;2.97;2.78;;;;;;;19.59;nan;96133.28;5109009;27;20204;-72
2022/10/18 11:14:09;;;;;;;2.78;2.55;;;;;;;19.60;nan;96137.53;5109557;27;20204;-70
2022/10/18 11:16:42;;;;;;;3.03;2.72;;;;;;;19.73;nan;96127.44;5109531;27;20223;-72
2022/10/18 11:19:20;;;;;;;3.03;2.83;;;;;;;19.43;nan;96127.25;5108515;27;20691;-71
2022/10/18 11:21:47;;;;;;;3.33;2.33;;;;;;;19.33;nan;96118.31;5109427;27;20261;-72
2022/10/18 11:24:16;;;;;;;2.92;2.47;;;;;;;19.36;nan;96113.00;5108250;27;20261;-71
2022/10/18 11:26:52;;;;;;;5.28;2.90;;;;;;;19.44;nan;96110.88;5110332;27;20281;-71
2022/10/18 11:29:40;;;;;;;2.45;2.30;;;;;;;19.62;nan;96106.53;5110268;27;20658;-72
2022/10/18 11:32:13;;;;;;;5.32;2.85;;;;;;;19.64;nan;96092.63;5112516;27;20212;-70
2022/10/18 11:34:57;;;;;;;9.05;2.55;;;;;;;19.43;nan;96085.16;5113390;27;20208;-73
2022/10/18 11:37:49;;;;;;;2.83;2.55;;;;;;;19.42;nan;96086.06;5112859;27;20704;-71
2022/10/18 11:40:32;;;;;;;6.93;2.60;;;;;;;19.63;nan;96072.09;5113056;27;20680;-71
2022/10/18 11:43:07;;;;;;;4.45;2.60;;;;;;;19.48;nan;96081.44;5113112;27;20708;-71
2022/10/18 11:45:42;;;;;;;2.20;2.10;;;;;;;19.51;nan;96071.00;5111673;27;20375;-71
2022/10/18 11:48:22;;;;;;;2.33;2.22;;;;;;;19.65;nan;96060.78;5112763;27;20230;-71
2022/10/18 11:50:58;;;;;;;3.03;2.67;;;;;;;19.76;nan;96056.81;5113610;27;20207;-72
2022/10/18 11:53:33;;;;;;;2.10;2.00;;;;;;;19.95;nan;96055.72;5111590;27;20638;-72
2022/10/18 11:56:12;;;;;;;7.50;2.35;;;;;;;20.25;nan;96050.59;5110281;27;20263;-71
2022/10/18 11:58:51;;;;;;;2.70;2.20;;;;;;;20.33;nan;96042.41;5111979;27;20219;-72